sensor_id;sensor_type;location;lat;lon;timestamp;pressure;altitude;pressure_sealevel;temperature;humidity
75629;BME280;64213;46.452;16.994;2023-12-29T00:01:51;100292.84;;;6.26;96.20
75629;BME280;64213;46.452;16.994;2023-12-29T00:04:54;100282.97;;;6.32;96.37
75629;BME280;64213;46.452;16.994;2023-12-29T00:07:56;100274.13;;;6.34;96.05
75629;BME280;64213;46.452;16.994;2023-12-29T00:10:59;100284.59;;;6.36;95.98
75629;BME280;64213;46.452;16.994;2023-12-29T00:14:02;100279.97;;;6.41;95.34
75629;BME280;64213;46.452;16.994;2023-12-29T00:17:04;100270.47;;;6.38;95.24
75629;BME280;64213;46.452;16.994;2023-12-29T00:20:07;100275.56;;;6.41;95.62
75629;BME280;64213;46.452;16.994;2023-12-29T00:23:12;100273.53;;;6.48;95.30
75629;BME280;64213;46.452;16.994;2023-12-29T00:26:19;100273.41;;;6.51;95.39
75629;BME280;64213;46.452;16.994;2023-12-29T00:29:21;100273.53;;;6.48;95.27
75629;BME280;64213;46.452;16.994;2023-12-29T00:32:24;100269.31;;;6.44;95.36
75629;BME280;64213;46.452;16.994;2023-12-29T00:35:27;100278.19;;;6.41;95.22
75629;BME280;64213;46.452;16.994;2023-12-29T00:38:29;100277.34;;;6.41;95.25
75629;BME280;64213;46.452;16.994;2023-12-29T00:41:32;100272.94;;;6.41;95.23
75629;BME280;64213;46.452;16.994;2023-12-29T00:44:34;100284.44;;;6.39;95.26
75629;BME280;64213;46.452;16.994;2023-12-29T00:47:38;100270.47;;;6.38;95.34
75629;BME280;64213;46.452;16.994;2023-12-29T00:50:42;100273.00;;;6.40;95.09
75629;BME280;64213;46.452;16.994;2023-12-29T00:53:45;100268.94;;;6.33;95.49
75629;BME280;64213;46.452;16.994;2023-12-29T00:56:52;100248.72;;;6.14;95.39
75629;BME280;64213;46.452;16.994;2023-12-29T00:59:54;100267.50;;;6.25;95.71
75629;BME280;64213;46.452;16.994;2023-12-29T01:02:57;100272.91;;;6.22;96.13
75629;BME280;64213;46.452;16.994;2023-12-29T01:06:00;100276.12;;;6.29;95.98
75629;BME280;64213;46.452;16.994;2023-12-29T01:09:02;100273.47;;;6.29;95.79
75629;BME280;64213;46.452;16.994;2023-12-29T01:12:05;100274.13;;;6.34;95.35
75629;BME280;64213;46.452;16.994;2023-12-29T01:15:08;100276.50;;;6.40;95.11
75629;BME280;64213;46.452;16.994;2023-12-29T01:18:11;100269.53;;;6.39;95.16
75629;BME280;64213;46.452;16.994;2023-12-29T01:21:14;100272.34;;;6.35;95.25
75629;BME280;64213;46.452;16.994;2023-12-29T01:24:16;100274.19;;;6.33;95.17
75629;BME280;64213;46.452;16.994;2023-12-29T01:27:29;100270.91;;;6.27;95.54
75629;BME280;64213;46.452;16.994;2023-12-29T01:30:32;100272.69;;;6.27;95.42
75629;BME280;64213;46.452;16.994;2023-12-29T01:33:35;100278.03;;;6.25;95.53
75629;BME280;64213;46.452;16.994;2023-12-29T01:36:38;100278.88;;;6.26;95.67
75629;BME280;64213;46.452;16.994;2023-12-29T01:39:40;100273.16;;;6.16;95.59
75629;BME280;64213;46.452;16.994;2023-12-29T01:42:42;100264.00;;;6.04;95.93
75629;BME280;64213;46.452;16.994;2023-12-29T01:45:45;100263.41;;;5.98;96.25
75629;BME280;64213;46.452;16.994;2023-12-29T01:49:00;100263.28;;;6.01;96.75
75629;BME280;64213;46.452;16.994;2023-12-29T01:52:04;100267.09;;;5.92;96.55
75629;BME280;64213;46.452;16.994;2023-12-29T01:55:09;100246.44;;;5.85;96.89
75629;BME280;64213;46.452;16.994;2023-12-29T01:58:14;100255.03;;;5.88;97.12
75629;BME280;64213;46.452;16.994;2023-12-29T02:01:18;100245.38;;;5.89;97.33
75629;BME280;64213;46.452;16.994;2023-12-29T02:04:23;100235.97;;;5.83;97.20
75629;BME280;64213;46.452;16.994;2023-12-29T02:07:27;100236.06;;;5.81;97.32
75629;BME280;64213;46.452;16.994;2023-12-29T02:10:33;100224.97;;;5.75;97.66
75629;BME280;64213;46.452;16.994;2023-12-29T02:13:36;100236.31;;;5.75;97.62
75629;BME280;64213;46.452;16.994;2023-12-29T02:20:07;100239.06;;;5.72;97.97
75629;BME280;64213;46.452;16.994;2023-12-29T02:23:10;100230.37;;;5.70;98.26
75629;BME280;64213;46.452;16.994;2023-12-29T02:26:15;100231.09;;;5.74;98.21
75629;BME280;64213;46.452;16.994;2023-12-29T02:29:19;100234.44;;;5.77;98.41
75629;BME280;64213;46.452;16.994;2023-12-29T02:32:24;100238.06;;;5.75;98.42
75629;BME280;64213;46.452;16.994;2023-12-29T02:35:32;100232.16;;;5.70;98.35
75629;BME280;64213;46.452;16.994;2023-12-29T02:38:36;100228.00;;;5.64;98.50
75629;BME280;64213;46.452;16.994;2023-12-29T02:41:39;100227.34;;;5.59;98.67
75629;BME280;64213;46.452;16.994;2023-12-29T02:44:41;100229.38;;;5.52;99.12
75629;BME280;64213;46.452;16.994;2023-12-29T02:47:44;100234.88;;;5.46;99.45
75629;BME280;64213;46.452;16.994;2023-12-29T02:50:47;100223.63;;;5.43;99.59
75629;BME280;64213;46.452;16.994;2023-12-29T02:53:50;100224.59;;;5.40;99.79
75629;BME280;64213;46.452;16.994;2023-12-29T02:56:53;100220.22;;;5.41;99.81
75629;BME280;64213;46.452;16.994;2023-12-29T02:59:56;100221.91;;;5.42;99.71
75629;BME280;64213;46.452;16.994;2023-12-29T03:02:59;100223.63;;;5.43;99.81
75629;BME280;64213;46.452;16.994;2023-12-29T03:06:01;100219.97;;;5.47;99.39
75629;BME280;64213;46.452;16.994;2023-12-29T03:09:04;100221.31;;;5.57;99.33
75629;BME280;64213;46.452;16.994;2023-12-29T03:12:06;100221.91;;;5.64;98.97
75629;BME280;64213;46.452;16.994;2023-12-29T03:15:09;100215.81;;;5.63;98.76
75629;BME280;64213;46.452;16.994;2023-12-29T03:18:11;100217.50;;;5.64;99.07
75629;BME280;64213;46.452;16.994;2023-12-29T03:21:14;100219.09;;;5.68;99.00
75629;BME280;64213;46.452;16.994;2023-12-29T03:24:16;100218.50;;;5.62;98.95
75629;BME280;64213;46.452;16.994;2023-12-29T03:27:19;100219.47;;;5.59;99.42
75629;BME280;64213;46.452;16.994;2023-12-29T03:30:21;100216.72;;;5.62;99.25
75629;BME280;64213;46.452;16.994;2023-12-29T03:33:24;100217.72;;;5.59;99.23
75629;BME280;64213;46.452;16.994;2023-12-29T03:36:28;100200.44;;;5.54;99.36
75629;BME280;64213;46.452;16.994;2023-12-29T03:39:30;100198.75;;;5.53;99.70
75629;BME280;64213;46.452;16.994;2023-12-29T03:42:34;100202.25;;;5.52;99.79
75629;BME280;64213;46.452;16.994;2023-12-29T03:45:37;100203.97;;;5.53;100.00
75629;BME280;64213;46.452;16.994;2023-12-29T03:48:40;100203.97;;;5.53;100.00
75629;BME280;64213;46.452;16.994;2023-12-29T03:51:43;100188.25;;;5.53;99.89
75629;BME280;64213;46.452;16.994;2023-12-29T03:54:46;100183.72;;;5.56;99.88
75629;BME280;64213;46.452;16.994;2023-12-29T03:57:50;100183.63;;;5.58;99.92
75629;BME280;64213;46.452;16.994;2023-12-29T04:00:53;100180.00;;;5.62;99.73
75629;BME280;64213;46.452;16.994;2023-12-29T04:03:57;100189.44;;;5.66;99.83
75629;BME280;64213;46.452;16.994;2023-12-29T04:07:05;100187.78;;;5.64;99.76
75629;BME280;64213;46.452;16.994;2023-12-29T04:10:07;100184.19;;;5.66;99.61
75629;BME280;64213;46.452;16.994;2023-12-29T04:13:13;100184.44;;;5.60;99.72
75629;BME280;64213;46.452;16.994;2023-12-29T04:16:18;100189.69;;;5.60;99.99
75629;BME280;64213;46.452;16.994;2023-12-29T04:19:22;100185.28;;;5.60;100.00
75629;BME280;64213;46.452;16.994;2023-12-29T04:22:31;100187.03;;;5.62;99.95
75629;BME280;64213;46.452;16.994;2023-12-29T04:25:33;100190.53;;;5.60;100.00
75629;BME280;64213;46.452;16.994;2023-12-29T04:28:36;100170.94;;;5.49;100.00
75629;BME280;64213;46.452;16.994;2023-12-29T04:31:39;100191.94;;;5.69;99.91
75629;BME280;64213;46.452;16.994;2023-12-29T04:34:41;100191.72;;;5.74;99.93
75629;BME280;64213;46.452;16.994;2023-12-29T04:37:44;100186.31;;;5.78;99.85
75629;BME280;64213;46.452;16.994;2023-12-29T04:40:52;100182.16;;;5.73;99.75
75629;BME280;64213;46.452;16.994;2023-12-29T04:43:54;100190.88;;;5.73;99.72
75629;BME280;64213;46.452;16.994;2023-12-29T04:46:57;100194.31;;;5.75;100.00
75629;BME280;64213;46.452;16.994;2023-12-29T04:50:00;100190.13;;;5.71;99.81
75629;BME280;64213;46.452;16.994;2023-12-29T04:53:04;100183.25;;;5.67;100.00
75629;BME280;64213;46.452;16.994;2023-12-29T04:56:06;100178.59;;;5.53;100.00
75629;BME280;64213;46.452;16.994;2023-12-29T04:59:09;100178.47;;;5.56;100.00
75629;BME280;64213;46.452;16.994;2023-12-29T05:02:12;100176.91;;;5.52;100.00
75629;BME280;64213;46.452;16.994;2023-12-29T05:05:14;100176.19;;;5.49;100.00
75629;BME280;64213;46.452;16.994;2023-12-29T05:08:17;100170.13;;;5.47;100.00
75629;BME280;64213;46.452;16.994;2023-12-29T05:11:20;100181.53;;;5.46;100.00
75629;BME280;64213;46.452;16.994;2023-12-29T05:14:22;100174.69;;;5.42;100.00
75629;BME280;64213;46.452;16.994;2023-12-29T05:17:24;100188.97;;;5.34;100.00
75629;BME280;64213;46.452;16.994;2023-12-29T05:20:27;100190.44;;;5.20;100.00
75629;BME280;64213;46.452;16.994;2023-12-29T05:23:29;100189.53;;;5.21;100.00
75629;BME280;64213;46.452;16.994;2023-12-29T05:26:32;100193.94;;;5.20;100.00
75629;BME280;64213;46.452;16.994;2023-12-29T05:29:34;100204.22;;;5.03;100.00
75629;BME280;64213;46.452;16.994;2023-12-29T05:32:37;100205.72;;;4.86;100.00
75629;BME280;64213;46.452;16.994;2023-12-29T05:35:39;100196.72;;;4.70;100.00
75629;BME280;64213;46.452;16.994;2023-12-29T05:38:45;100198.88;;;4.59;100.00
75629;BME280;64213;46.452;16.994;2023-12-29T05:41:49;100201.19;;;4.43;100.00
75629;BME280;64213;46.452;16.994;2023-12-29T05:44:51;100202.22;;;4.39;100.00
75629;BME280;64213;46.452;16.994;2023-12-29T05:47:53;100200.50;;;4.63;100.00
75629;BME280;64213;46.452;16.994;2023-12-29T05:50:55;100213.56;;;4.39;100.00
75629;BME280;64213;46.452;16.994;2023-12-29T05:53:58;100213.44;;;4.17;100.00
75629;BME280;64213;46.452;16.994;2023-12-29T05:57:01;100206.19;;;4.01;100.00
75629;BME280;64213;46.452;16.994;2023-12-29T06:00:04;100221.06;;;4.00;100.00
75629;BME280;64213;46.452;16.994;2023-12-29T06:03:06;100218.94;;;3.85;100.00
75629;BME280;64213;46.452;16.994;2023-12-29T06:06:09;100212.44;;;3.70;100.00
75629;BME280;64213;46.452;16.994;2023-12-29T06:09:12;100210.09;;;3.62;100.00
75629;BME280;64213;46.452;16.994;2023-12-29T06:12:14;100209.44;;;3.56;100.00
75629;BME280;64213;46.452;16.994;2023-12-29T06:15:17;100212.44;;;3.43;100.00
75629;BME280;64213;46.452;16.994;2023-12-29T06:18:20;100212.84;;;3.31;100.00
75629;BME280;64213;46.452;16.994;2023-12-29T06:21:22;100214.94;;;3.20;100.00
75629;BME280;64213;46.452;16.994;2023-12-29T06:24:25;100208.31;;;3.08;100.00
75629;BME280;64213;46.452;16.994;2023-12-29T06:27:27;100222.59;;;2.98;100.00
75629;BME280;64213;46.452;16.994;2023-12-29T06:30:30;100221.09;;;2.89;100.00
75629;BME280;64213;46.452;16.994;2023-12-29T06:33:33;100223.84;;;2.85;100.00
75629;BME280;64213;46.452;16.994;2023-12-29T06:36:35;100228.31;;;2.81;100.00
75629;BME280;64213;46.452;16.994;2023-12-29T06:39:38;100230.84;;;2.84;100.00
75629;BME280;64213;46.452;16.994;2023-12-29T06:42:42;100227.41;;;2.82;100.00
75629;BME280;64213;46.452;16.994;2023-12-29T06:45:45;100228.31;;;2.81;100.00
75629;BME280;64213;46.452;16.994;2023-12-29T06:48:47;100242.94;;;2.87;100.00
75629;BME280;64213;46.452;16.994;2023-12-29T06:51:52;100241.28;;;2.84;100.00
75629;BME280;64213;46.452;16.994;2023-12-29T06:54:54;100241.41;;;2.79;100.00
75629;BME280;64213;46.452;16.994;2023-12-29T06:57:56;100244.25;;;2.72;100.00
75629;BME280;64213;46.452;16.994;2023-12-29T07:00:59;100246.94;;;2.69;100.00
75629;BME280;64213;46.452;16.994;2023-12-29T07:04:03;100255.50;;;2.74;100.00
75629;BME280;64213;46.452;16.994;2023-12-29T07:07:06;100249.03;;;2.87;100.00
75629;BME280;64213;46.452;16.994;2023-12-29T07:10:12;100250.47;;;2.97;100.00
75629;BME280;64213;46.452;16.994;2023-12-29T07:13:15;100248.44;;;3.07;100.00
75629;BME280;64213;46.452;16.994;2023-12-29T07:16:17;100248.53;;;3.04;100.00
75629;BME280;64213;46.452;16.994;2023-12-29T07:19:21;100252.72;;;3.10;100.00
75629;BME280;64213;46.452;16.994;2023-12-29T07:22:24;100246.06;;;3.28;100.00
75629;BME280;64213;46.452;16.994;2023-12-29T07:25:27;100249.59;;;3.26;100.00
75629;BME280;64213;46.452;16.994;2023-12-29T07:28:29;100247.88;;;3.25;100.00
75629;BME280;64213;46.452;16.994;2023-12-29T07:31:32;100250.63;;;3.49;100.00
75629;BME280;64213;46.452;16.994;2023-12-29T07:34:35;100251.56;;;3.75;100.00
75629;BME280;64213;46.452;16.994;2023-12-29T07:37:38;100249.88;;;3.99;100.00
75629;BME280;64213;46.452;16.994;2023-12-29T07:40:41;100245.69;;;4.19;100.00
75629;BME280;64213;46.452;16.994;2023-12-29T07:43:43;100252.47;;;4.25;100.00
75629;BME280;64213;46.452;16.994;2023-12-29T07:46:46;100246.44;;;4.23;100.00
75629;BME280;64213;46.452;16.994;2023-12-29T07:49:48;100259.41;;;4.26;100.00
75629;BME280;64213;46.452;16.994;2023-12-29T07:52:51;100260.56;;;4.44;100.00
75629;BME280;64213;46.452;16.994;2023-12-29T07:55:53;100261.00;;;4.55;100.00
75629;BME280;64213;46.452;16.994;2023-12-29T07:58:56;100266.75;;;4.65;100.00
75629;BME280;64213;46.452;16.994;2023-12-29T08:01:59;100259.38;;;4.76;100.00
75629;BME280;64213;46.452;16.994;2023-12-29T08:05:02;100274.63;;;4.65;100.00
75629;BME280;64213;46.452;16.994;2023-12-29T08:08:04;100269.97;;;4.73;100.00
75629;BME280;64213;46.452;16.994;2023-12-29T08:11:15;100268.81;;;5.04;100.00
75629;BME280;64213;46.452;16.994;2023-12-29T08:14:18;100260.66;;;5.57;100.00
75629;BME280;64213;46.452;16.994;2023-12-29T08:17:20;100268.53;;;6.01;100.00
75629;BME280;64213;46.452;16.994;2023-12-29T08:20:23;100274.97;;;6.35;100.00
75629;BME280;64213;46.452;16.994;2023-12-29T08:23:26;100276.69;;;6.56;99.81
75629;BME280;64213;46.452;16.994;2023-12-29T08:26:29;100272.88;;;6.82;98.92
75629;BME280;64213;46.452;16.994;2023-12-29T08:29:31;100258.41;;;7.11;97.03
75629;BME280;64213;46.452;16.994;2023-12-29T08:32:34;100267.72;;;7.56;94.70
75629;BME280;64213;46.452;16.994;2023-12-29T08:35:36;100274.81;;;7.90;92.02
75629;BME280;64213;46.452;16.994;2023-12-29T08:38:38;100264.53;;;8.21;91.36
75629;BME280;64213;46.452;16.994;2023-12-29T08:41:42;100268.72;;;8.42;91.49
75629;BME280;64213;46.452;16.994;2023-12-29T08:44:44;100275.84;;;8.57;90.69
75629;BME280;64213;46.452;16.994;2023-12-29T08:47:47;100276.75;;;8.74;88.82
75629;BME280;64213;46.452;16.994;2023-12-29T08:50:49;100289.13;;;8.89;87.64
75629;BME280;64213;46.452;16.994;2023-12-29T08:53:53;100284.06;;;9.02;86.92
75629;BME280;64213;46.452;16.994;2023-12-29T08:56:55;100280.69;;;9.16;86.69
75629;BME280;64213;46.452;16.994;2023-12-29T08:59:58;100288.34;;;9.36;85.21
75629;BME280;64213;46.452;16.994;2023-12-29T09:03:01;100296.94;;;9.24;86.98
75629;BME280;64213;46.452;16.994;2023-12-29T09:06:04;100302.41;;;9.37;84.26
75629;BME280;64213;46.452;16.994;2023-12-29T09:09:07;100305.66;;;9.26;85.21
75629;BME280;64213;46.452;16.994;2023-12-29T09:12:13;100307.75;;;9.19;85.50
75629;BME280;64213;46.452;16.994;2023-12-29T09:15:16;100316.84;;;9.14;85.95
75629;BME280;64213;46.452;16.994;2023-12-29T09:18:18;100308.84;;;9.15;85.12
75629;BME280;64213;46.452;16.994;2023-12-29T09:21:21;100302.19;;;9.08;85.62
75629;BME280;64213;46.452;16.994;2023-12-29T09:24:24;100310.12;;;9.08;86.10
75629;BME280;64213;46.452;16.994;2023-12-29T09:27:27;100309.88;;;9.13;85.81
75629;BME280;64213;46.452;16.994;2023-12-29T09:30:30;100307.94;;;9.16;84.82
75629;BME280;64213;46.452;16.994;2023-12-29T09:33:32;100305.03;;;9.21;84.84
75629;BME280;64213;46.452;16.994;2023-12-29T09:36:35;100300.38;;;9.26;82.97
75629;BME280;64213;46.452;16.994;2023-12-29T09:39:38;100298.13;;;9.34;83.02
75629;BME280;64213;46.452;16.994;2023-12-29T09:42:42;100295.44;;;9.51;80.16
75629;BME280;64213;46.452;16.994;2023-12-29T09:45:45;100292.78;;;9.51;79.09
75629;BME280;64213;46.452;16.994;2023-12-29T09:48:52;100291.84;;;9.68;79.24
75629;BME280;64213;46.452;16.994;2023-12-29T09:51:57;100287.19;;;9.58;79.57
75629;BME280;64213;46.452;16.994;2023-12-29T09:55:00;100288.44;;;9.66;78.12
75629;BME280;64213;46.452;16.994;2023-12-29T09:58:04;100286.12;;;9.76;77.42
75629;BME280;64213;46.452;16.994;2023-12-29T10:01:07;100284.06;;;9.81;76.57
75629;BME280;64213;46.452;16.994;2023-12-29T10:04:09;100282.62;;;9.75;76.75
75629;BME280;64213;46.452;16.994;2023-12-29T10:07:17;100280.75;;;9.77;76.75
75629;BME280;64213;46.452;16.994;2023-12-29T10:10:23;100280.06;;;9.90;77.01
75629;BME280;64213;46.452;16.994;2023-12-29T10:13:28;100276.12;;;10.27;74.37
75629;BME280;64213;46.452;16.994;2023-12-29T10:16:42;100280.53;;;10.42;72.94
75629;BME280;64213;46.452;16.994;2023-12-29T10:19:58;100268.84;;;10.75;71.95
75629;BME280;64213;46.452;16.994;2023-12-29T10:23:11;100268.06;;;11.30;69.37
75629;BME280;64213;46.452;16.994;2023-12-29T10:26:15;100260.38;;;11.81;68.53
75629;BME280;64213;46.452;16.994;2023-12-29T10:29:18;100249.66;;;12.10;66.42
75629;BME280;64213;46.452;16.994;2023-12-29T10:32:22;100252.34;;;12.87;65.17
75629;BME280;64213;46.452;16.994;2023-12-29T10:35:26;100247.97;;;12.98;63.21
75629;BME280;64213;46.452;16.994;2023-12-29T10:38:30;100246.12;;;13.37;63.88
75629;BME280;64213;46.452;16.994;2023-12-29T10:41:32;100249.91;;;12.96;62.98
75629;BME280;64213;46.452;16.994;2023-12-29T10:44:35;100243.87;;;12.69;64.80
75629;BME280;64213;46.452;16.994;2023-12-29T10:47:43;100242.25;;;12.53;63.18
75629;BME280;64213;46.452;16.994;2023-12-29T10:50:46;100238.03;;;12.51;63.20
75629;BME280;64213;46.452;16.994;2023-12-29T10:53:54;100243.75;;;12.32;64.75
75629;BME280;64213;46.452;16.994;2023-12-29T10:57:01;100235.25;;;12.27;64.77
75629;BME280;64213;46.452;16.994;2023-12-29T11:00:05;100230.59;;;12.30;64.13
75629;BME280;64213;46.452;16.994;2023-12-29T11:03:15;100226.56;;;12.38;64.28
75629;BME280;64213;46.452;16.994;2023-12-29T11:06:19;100217.31;;;12.43;64.80
75629;BME280;64213;46.452;16.994;2023-12-29T11:09:27;100216.59;;;12.28;65.71
75629;BME280;64213;46.452;16.994;2023-12-29T11:12:32;100217.66;;;12.39;66.02
75629;BME280;64213;46.452;16.994;2023-12-29T11:15:35;100211.94;;;12.57;65.09
75629;BME280;64213;46.452;16.994;2023-12-29T11:18:38;100209.69;;;12.51;64.59
75629;BME280;64213;46.452;16.994;2023-12-29T11:21:42;100199.50;;;12.32;65.38
75629;BME280;64213;46.452;16.994;2023-12-29T11:24:48;100192.81;;;12.40;65.29
75629;BME280;64213;46.452;16.994;2023-12-29T11:27:52;100199.50;;;12.58;65.20
75629;BME280;64213;46.452;16.994;2023-12-29T11:30:55;100200.22;;;12.47;64.63
75629;BME280;64213;46.452;16.994;2023-12-29T11:34:10;100200.13;;;12.23;65.35
75629;BME280;64213;46.452;16.994;2023-12-29T11:37:38;100197.59;;;12.47;65.44
75629;BME280;64213;46.452;16.994;2023-12-29T11:40:59;100190.06;;;12.54;64.94
75629;BME280;64213;46.452;16.994;2023-12-29T11:44:04;100184.75;;;12.54;64.68
75629;BME280;64213;46.452;16.994;2023-12-29T11:47:36;100178.56;;;12.66;64.17
75629;BME280;64213;46.452;16.994;2023-12-29T11:50:39;100181.75;;;12.71;64.62
75629;BME280;64213;46.452;16.994;2023-12-29T11:53:42;100176.53;;;12.70;64.76
75629;BME280;64213;46.452;16.994;2023-12-29T11:56:46;100170.09;;;12.61;64.41
75629;BME280;64213;46.452;16.994;2023-12-29T11:59:49;100167.62;;;12.84;64.29
75629;BME280;64213;46.452;16.994;2023-12-29T12:02:52;100163.78;;;12.88;64.06
75629;BME280;64213;46.452;16.994;2023-12-29T12:05:55;100156.31;;;13.06;63.58
75629;BME280;64213;46.452;16.994;2023-12-29T12:09:16;100157.41;;;13.14;63.83
75629;BME280;64213;46.452;16.994;2023-12-29T12:12:40;100156.88;;;13.22;63.61
75629;BME280;64213;46.452;16.994;2023-12-29T12:15:44;100155.50;;;13.29;61.61
75629;BME280;64213;46.452;16.994;2023-12-29T12:18:46;100151.66;;;13.20;62.21
75629;BME280;64213;46.452;16.994;2023-12-29T12:21:53;100148.75;;;13.12;62.91
75629;BME280;64213;46.452;16.994;2023-12-29T12:24:57;100135.22;;;13.28;62.49
75629;BME280;64213;46.452;16.994;2023-12-29T12:28:04;100136.09;;;13.40;62.63
75629;BME280;64213;46.452;16.994;2023-12-29T12:31:07;100136.09;;;13.40;61.72
75629;BME280;64213;46.452;16.994;2023-12-29T12:34:11;100128.87;;;13.42;62.43
75629;BME280;64213;46.452;16.994;2023-12-29T12:37:28;100125.06;;;13.33;61.75
75629;BME280;64213;46.452;16.994;2023-12-29T12:40:31;100123.28;;;13.34;62.44
75629;BME280;64213;46.452;16.994;2023-12-29T12:43:34;100123.75;;;13.28;62.13
75629;BME280;64213;46.452;16.994;2023-12-29T12:49:49;100112.56;;;13.22;63.22
75629;BME280;64213;46.452;16.994;2023-12-29T12:52:52;100113.41;;;13.23;63.11
75629;BME280;64213;46.452;16.994;2023-12-29T12:55:55;100106.62;;;13.19;63.17
75629;BME280;64213;46.452;16.994;2023-12-29T12:58:57;100106.59;;;13.32;62.35
75629;BME280;64213;46.452;16.994;2023-12-29T13:02:02;100099.16;;;13.24;62.93
75629;BME280;64213;46.452;16.994;2023-12-29T13:05:06;100100.22;;;13.34;62.80
75629;BME280;64213;46.452;16.994;2023-12-29T13:08:11;100090.22;;;13.38;62.08
75629;BME280;64213;46.452;16.994;2023-12-29T13:11:20;100088.34;;;13.27;62.55
75629;BME280;64213;46.452;16.994;2023-12-29T13:14:28;100092.63;;;13.41;61.91
75629;BME280;64213;46.452;16.994;2023-12-29T13:17:30;100080.87;;;13.32;61.62
75629;BME280;64213;46.452;16.994;2023-12-29T13:20:46;100081.72;;;13.33;61.48
75629;BME280;64213;46.452;16.994;2023-12-29T13:23:49;100070.03;;;13.35;61.81
75629;BME280;64213;46.452;16.994;2023-12-29T13:26:57;100072.28;;;13.29;61.66
75629;BME280;64213;46.452;16.994;2023-12-29T13:30:04;100075.94;;;13.28;61.83
75629;BME280;64213;46.452;16.994;2023-12-29T13:33:12;100063.13;;;13.33;61.40
75629;BME280;64213;46.452;16.994;2023-12-29T13:36:23;100069.09;;;13.23;61.63
75629;BME280;64213;46.452;16.994;2023-12-29T13:39:52;100071.25;;;13.18;62.06
75629;BME280;64213;46.452;16.994;2023-12-29T13:42:58;100064.37;;;13.16;62.27
75629;BME280;64213;46.452;16.994;2023-12-29T13:46:03;100063.91;;;13.22;61.67
75629;BME280;64213;46.452;16.994;2023-12-29T13:49:07;100064.88;;;13.21;60.91
75629;BME280;64213;46.452;16.994;2023-12-29T13:52:10;100062.91;;;13.12;61.60
75629;BME280;64213;46.452;16.994;2023-12-29T13:55:23;100063.13;;;13.09;61.79
75629;BME280;64213;46.452;16.994;2023-12-29T13:58:25;100055.66;;;13.14;61.61
75629;BME280;64213;46.452;16.994;2023-12-29T14:01:34;100069.06;;;13.12;61.73
75629;BME280;64213;46.452;16.994;2023-12-29T14:04:37;100069.97;;;13.00;62.41
75629;BME280;64213;46.452;16.994;2023-12-29T14:07:45;100073.38;;;13.02;62.42
75629;BME280;64213;46.452;16.994;2023-12-29T14:10:49;100073.00;;;12.83;63.21
75629;BME280;64213;46.452;16.994;2023-12-29T14:13:52;100069.16;;;12.87;63.24
75629;BME280;64213;46.452;16.994;2023-12-29T14:16:54;100073.63;;;12.86;63.20
75629;BME280;64213;46.452;16.994;2023-12-29T14:19:57;100066.38;;;12.64;64.07
75629;BME280;64213;46.452;16.994;2023-12-29T14:23:07;100071.47;;;12.67;63.97
75629;BME280;64213;46.452;16.994;2023-12-29T14:26:09;100070.09;;;12.62;64.50
75629;BME280;64213;46.452;16.994;2023-12-29T14:29:12;100068.41;;;12.61;64.74
75629;BME280;64213;46.452;16.994;2023-12-29T14:32:14;100060.38;;;12.49;65.59
75629;BME280;64213;46.452;16.994;2023-12-29T14:35:17;100066.72;;;12.47;65.72
75629;BME280;64213;46.452;16.994;2023-12-29T14:38:19;100067.16;;;12.41;66.39
75629;BME280;64213;46.452;16.994;2023-12-29T14:41:23;100070.16;;;12.36;66.49
75629;BME280;64213;46.452;16.994;2023-12-29T14:44:26;100067.31;;;12.26;67.29
75629;BME280;64213;46.452;16.994;2023-12-29T14:47:30;100061.91;;;12.15;68.27
75629;BME280;64213;46.452;16.994;2023-12-29T14:50:33;100054.50;;;12.07;68.60
75629;BME280;64213;46.452;16.994;2023-12-29T14:53:35;100053.87;;;11.91;69.02
75629;BME280;64213;46.452;16.994;2023-12-29T14:56:38;100055.44;;;11.81;70.09
75629;BME280;64213;46.452;16.994;2023-12-29T14:59:40;100042.91;;;11.70;71.33
75629;BME280;64213;46.452;16.994;2023-12-29T15:02:42;100042.81;;;11.59;71.37
75629;BME280;64213;46.452;16.994;2023-12-29T15:05:46;100044.28;;;11.50;71.60
75629;BME280;64213;46.452;16.994;2023-12-29T15:08:48;100048.50;;;11.40;71.87
75629;BME280;64213;46.452;16.994;2023-12-29T15:11:50;100047.53;;;11.28;72.34
75629;BME280;64213;46.452;16.994;2023-12-29T15:14:55;100042.09;;;11.17;72.75
75629;BME280;64213;46.452;16.994;2023-12-29T15:17:57;100050.25;;;11.14;72.76
75629;BME280;64213;46.452;16.994;2023-12-29T15:21:00;100049.91;;;11.06;73.22
75629;BME280;64213;46.452;16.994;2023-12-29T15:24:07;100048.41;;;11.02;73.14
75629;BME280;64213;46.452;16.994;2023-12-29T15:27:09;100046.25;;;10.94;73.71
75629;BME280;64213;46.452;16.994;2023-12-29T15:30:12;100056.19;;;10.90;73.60
75629;BME280;64213;46.452;16.994;2023-12-29T15:33:14;100060.94;;;10.85;73.68
75629;BME280;64213;46.452;16.994;2023-12-29T15:36:17;100049.41;;;10.86;73.87
75629;BME280;64213;46.452;16.994;2023-12-29T15:39:23;100057.09;;;10.77;74.08
75629;BME280;64213;46.452;16.994;2023-12-29T15:42:25;100063.81;;;10.68;74.37
75629;BME280;64213;46.452;16.994;2023-12-29T15:45:29;100052.50;;;10.66;74.31
75629;BME280;64213;46.452;16.994;2023-12-29T15:48:31;100059.22;;;10.57;74.88
75629;BME280;64213;46.452;16.994;2023-12-29T15:51:34;100057.16;;;10.48;75.14
75629;BME280;64213;46.452;16.994;2023-12-29T15:54:37;100055.94;;;10.39;75.49
75629;BME280;64213;46.452;16.994;2023-12-29T15:57:40;100061.81;;;10.30;75.89
75629;BME280;64213;46.452;16.994;2023-12-29T16:00:47;100059.81;;;10.19;76.51